Time;durP1;ratioP1;P1;durP2;ratioP2;P2;SDS_P1;SDS_P2;PMS_P1;PMS_P2;Temp;Humidity;BMP_temperature;BMP_pressure;BME280_temperature;BME280_humidity;BME280_pressure;Samples;Min_cycle;Max_cycle;Signal;HPM_P1;HPM_P2
2023/09/02 00:01:01;;;;;;;7.63;6.75;;;13.60;99.90;;;;;;4905197;29;20059;-69
2023/09/02 00:03:26;;;;;;;9.07;7.20;;;13.70;99.90;;;;;;4904626;29;20050;-69
2023/09/02 00:05:53;;;;;;;11.65;7.93;;;13.80;99.90;;;;;;4904731;29;20612;-69
2023/09/02 00:08:19;;;;;;;9.48;6.90;;;;;;;;;;4905172;29;20119;-69
2023/09/02 00:10:45;;;;;;;7.60;6.78;;;;;;;;;;4906938;29;20175;-69
2023/09/02 00:13:11;;;;;;;9.20;7.30;;;;;;;;;;4889504;29;20049;-69
2023/09/02 00:15:36;;;;;;;9.65;7.45;;;13.80;99.90;;;;;;4903266;29;20698;-69
2023/09/02 00:18:02;;;;;;;10.20;7.65;;;;;;;;;;4908184;29;20220;-69
2023/09/02 00:20:28;;;;;;;11.98;8.23;;;;;;;;;;4885860;29;20123;-69
2023/09/02 00:22:55;;;;;;;15.07;7.40;;;;;;;;;;4871805;29;20197;-69
2023/09/02 00:25:22;;;;;;;9.07;7.35;;;13.70;99.90;;;;;;4905215;29;20127;-69
2023/09/02 00:27:48;;;;;;;8.05;7.25;;;;;;;;;;4907078;29;20120;-69
2023/09/02 00:30:14;;;;;;;8.02;6.45;;;13.70;99.90;;;;;;4905013;29;20037;-68
2023/09/02 00:32:40;;;;;;;7.80;6.13;;;13.70;99.90;;;;;;4869767;29;20045;-69
2023/09/02 00:35:06;;;;;;;12.55;8.38;;;13.60;99.90;;;;;;4911239;29;20088;-69
2023/09/02 00:37:31;;;;;;;12.52;7.47;;;13.50;99.90;;;;;;4908198;29;20048;-69
2023/09/02 00:39:57;;;;;;;13.27;8.32;;;13.50;99.90;;;;;;4925567;29;20051;-69
2023/09/02 00:42:24;;;;;;;10.05;7.80;;;13.70;99.90;;;;;;4904494;29;20048;-69
2023/09/02 00:44:50;;;;;;;11.25;9.15;;;13.90;99.90;;;;;;4908390;29;20060;-69
2023/09/02 00:47:16;;;;;;;10.50;8.27;;;13.70;99.90;;;;;;4926518;29;20044;-69
2023/09/02 00:49:41;;;;;;;15.10;10.25;;;13.90;99.90;;;;;;4904572;29;20414;-69
2023/09/02 00:52:07;;;;;;;15.45;11.55;;;13.90;99.90;;;;;;4907524;29;20124;-69
2023/09/02 00:54:33;;;;;;;13.48;10.30;;;13.80;99.90;;;;;;4925170;29;20051;-69
2023/09/02 00:56:59;;;;;;;10.55;8.70;;;;;;;;;;4922101;29;20044;-69
2023/09/02 00:59:25;;;;;;;12.93;8.60;;;;;;;;;;4896719;29;20044;-69
2023/09/02 01:01:51;;;;;;;9.40;8.25;;;13.80;99.90;;;;;;4922995;29;20040;-69
2023/09/02 01:04:16;;;;;;;9.35;7.38;;;13.80;99.90;;;;;;4903483;29;20521;-69
2023/09/02 01:06:42;;;;;;;10.13;8.00;;;13.80;99.90;;;;;;4924250;29;20052;-69
2023/09/02 01:09:08;;;;;;;9.30;6.60;;;;;;;;;;4930016;29;20066;-69
2023/09/02 01:11:34;;;;;;;6.63;5.93;;;;;;;;;;4927880;29;20490;-69
2023/09/02 01:14:03;;;;;;;7.00;6.28;;;13.70;99.90;;;;;;4907432;29;20143;-69
2023/09/02 01:16:30;;;;;;;7.78;6.97;;;;;;;;;;4921568;29;20063;-69
2023/09/02 01:18:57;;;;;;;7.97;6.80;;;13.80;99.90;;;;;;4910460;29;20083;-69
2023/09/02 01:21:49;;;;;;;7.07;6.38;;;13.70;99.90;;;;;;4928276;29;20052;-69
2023/09/02 01:24:45;;;;;;;11.40;9.25;;;13.90;99.90;;;;;;4924692;29;20052;-69
2023/09/02 01:27:22;;;;;;;10.55;9.18;;;13.70;99.90;;;;;;4928972;29;20056;-69
2023/09/02 01:30:06;;;;;;;10.52;8.40;;;13.50;99.90;;;;;;4928399;29;20076;-69
2023/09/02 01:32:34;;;;;;;10.18;8.25;;;13.50;99.90;;;;;;4924915;29;20578;-69
2023/09/02 01:35:04;;;;;;;9.27;7.90;;;13.50;99.90;;;;;;4929482;29;20071;-69
2023/09/02 01:37:33;;;;;;;14.65;9.00;;;13.40;99.90;;;;;;4908345;29;20051;-69
2023/09/02 01:39:59;;;;;;;12.25;9.50;;;13.40;99.90;;;;;;4919797;29;20039;-69
2023/09/02 01:42:26;;;;;;;13.07;9.63;;;13.60;99.90;;;;;;4924580;29;20541;-69
2023/09/02 01:44:52;;;;;;;15.13;9.82;;;13.60;99.90;;;;;;4929405;29;20047;-69
2023/09/02 01:47:18;;;;;;;11.93;8.57;;;13.50;99.90;;;;;;4925895;29;20080;-69
2023/09/02 01:49:46;;;;;;;9.23;7.65;;;13.70;99.90;;;;;;4929590;29;20142;-69
2023/09/02 01:52:14;;;;;;;9.13;7.53;;;13.50;99.90;;;;;;4928419;29;20049;-69
2023/09/02 01:54:40;;;;;;;7.95;7.13;;;;;;;;;;4908625;29;20056;-69
2023/09/02 01:57:06;;;;;;;8.57;7.57;;;;;;;;;;4929769;29;20059;-69
2023/09/02 01:59:31;;;;;;;11.07;7.50;;;13.40;99.90;;;;;;4928194;29;20046;-69
2023/09/02 02:01:57;;;;;;;11.75;9.35;;;13.40;99.90;;;;;;4929234;29;20039;-69
2023/09/02 02:04:22;;;;;;;14.50;10.15;;;13.60;99.90;;;;;;4928104;29;20075;-69
2023/09/02 02:06:52;;;;;;;14.95;10.48;;;13.40;99.90;;;;;;4908507;29;20044;-69
2023/09/02 02:09:38;;;;;;;13.18;10.00;;;13.60;99.90;;;;;;4924996;29;20102;-69
2023/09/02 02:12:04;;;;;;;12.18;9.80;;;;;;;;;;4927923;29;20697;-69
2023/09/02 02:14:31;;;;;;;11.05;8.77;;;;;;;;;;4906618;29;20432;-69
2023/09/02 02:16:57;;;;;;;11.88;8.93;;;13.60;99.90;;;;;;4927743;29;20414;-69
2023/09/02 02:19:22;;;;;;;8.13;7.30;;;13.60;99.90;;;;;;4927239;29;20050;-69
2023/09/02 02:21:48;;;;;;;7.85;6.28;;;13.30;99.90;;;;;;4926164;29;20137;-69
2023/09/02 02:24:14;;;;;;;11.18;7.72;;;13.30;99.90;;;;;;4927445;29;20044;-69
2023/09/02 02:26:40;;;;;;;7.63;6.50;;;;;;;;;;4927429;29;20848;-69
2023/09/02 02:29:06;;;;;;;8.10;7.25;;;;;;;;;;4927988;29;20126;-69
2023/09/02 02:31:34;;;;;;;9.85;7.55;;;;;;;;;;4927211;29;20039;-69
2023/09/02 02:34:00;;;;;;;10.07;7.82;;;;;;;;;;4907542;29;20831;-69
2023/09/02 02:36:26;;;;;;;7.05;6.35;;;;;;;;;;4926542;29;20158;-69
2023/09/02 02:38:52;;;;;;;11.88;7.32;;;;;;;;;;4905380;29;20056;-69
2023/09/02 02:41:17;;;;;;;7.30;6.30;;;13.10;99.90;;;;;;4907031;29;20051;-69
2023/09/02 02:43:43;;;;;;;7.65;6.50;;;13.00;99.90;;;;;;4924284;29;20075;-69
2023/09/02 02:46:08;;;;;;;7.70;6.90;;;13.10;99.90;;;;;;4907526;29;20219;-69
2023/09/02 02:48:34;;;;;;;8.80;7.90;;;13.10;99.90;;;;;;4927244;29;20503;-69
2023/09/02 02:50:59;;;;;;;8.18;7.32;;;13.10;99.90;;;;;;4926964;29;20087;-69
2023/09/02 02:53:26;;;;;;;8.90;7.43;;;;;;;;;;4927894;29;20050;-69
2023/09/02 02:55:52;;;;;;;11.35;8.98;;;;;;;;;;4927446;29;20155;-69
2023/09/02 02:58:18;;;;;;;11.43;9.02;;;;;;;;;;4919237;29;20054;-69
2023/09/02 03:00:44;;;;;;;12.60;9.55;;;13.10;99.90;;;;;;4917332;29;20036;-69
2023/09/02 03:03:11;;;;;;;14.00;9.23;;;;;;;;;;4921147;29;20035;-69
2023/09/02 03:05:40;;;;;;;10.70;8.20;;;;;;;;;;4925281;29;20071;-69
2023/09/02 03:08:07;;;;;;;10.75;8.63;;;13.20;99.90;;;;;;4902826;29;20044;-69
2023/09/02 03:10:35;;;;;;;13.95;9.13;;;13.20;99.90;;;;;;4907335;29;20529;-69
2023/09/02 03:13:01;;;;;;;11.50;8.98;;;;;;;;;;4909529;29;20047;-69
2023/09/02 03:15:27;;;;;;;14.73;9.48;;;;;;;;;;4908433;29;20054;-69
2023/09/02 03:17:53;;;;;;;12.57;9.70;;;;;;;;;;4907269;29;20491;-69
2023/09/02 03:20:19;;;;;;;14.00;9.23;;;13.00;99.90;;;;;;4924675;29;20446;-69
2023/09/02 03:22:44;;;;;;;12.77;10.07;;;13.00;99.90;;;;;;4921858;29;20036;-69
2023/09/02 03:25:10;;;;;;;11.48;8.45;;;13.10;99.90;;;;;;4926912;29;20497;-69
2023/09/02 03:27:39;;;;;;;13.05;8.68;;;13.10;99.90;;;;;;4925485;29;20490;-69
2023/09/02 03:30:08;;;;;;;8.60;7.70;;;12.90;99.90;;;;;;4904900;29;20047;-69
2023/09/02 03:32:35;;;;;;;15.68;9.32;;;13.00;99.90;;;;;;4919794;29;20040;-69
2023/09/02 03:35:01;;;;;;;13.20;9.75;;;13.00;99.90;;;;;;4926881;29;20139;-69
2023/09/02 03:37:27;;;;;;;15.70;11.10;;;12.80;99.90;;;;;;4925438;29;20050;-69
2023/09/02 03:39:57;;;;;;;15.20;9.73;;;13.10;99.90;;;;;;4904630;29;20052;-69
2023/09/02 03:42:23;;;;;;;13.50;10.70;;;;;;;;;;4923734;29;20138;-69
2023/09/02 03:44:48;;;;;;;12.60;10.85;;;13.00;99.90;;;;;;4900156;29;20056;-69
2023/09/02 03:47:14;;;;;;;14.65;10.50;;;;;;;;;;4925004;29;20052;-69
2023/09/02 03:49:40;;;;;;;12.93;10.38;;;13.10;99.90;;;;;;4919436;29;20055;-69
2023/09/02 03:52:06;;;;;;;14.35;10.43;;;13.10;99.90;;;;;;4925299;29;20502;-69
2023/09/02 03:54:32;;;;;;;12.90;9.27;;;;;;;;;;4926570;29;20412;-69
2023/09/02 03:56:58;;;;;;;12.93;10.35;;;;;;;;;;4921963;29;20044;-69
2023/09/02 03:59:24;;;;;;;14.18;10.13;;;;;;;;;;4926503;29;20625;-69
2023/09/02 04:01:50;;;;;;;12.38;10.77;;;;;;;;;;4921589;29;20180;-69
2023/09/02 04:04:15;;;;;;;12.40;10.57;;;13.20;99.90;;;;;;4906112;29;20076;-69
2023/09/02 04:06:41;;;;;;;11.13;9.48;;;13.10;99.90;;;;;;4918407;29;20056;-69
2023/09/02 04:09:07;;;;;;;15.20;10.57;;;;;;;;;;4898831;29;20099;-69
2023/09/02 04:11:33;;;;;;;13.95;10.73;;;;;;;;;;4901439;29;20123;-69
2023/09/02 04:14:00;;;;;;;15.07;10.15;;;;;;;;;;4925387;29;20613;-69
2023/09/02 04:16:26;;;;;;;12.85;8.93;;;13.20;99.90;;;;;;4926648;29;20048;-69
2023/09/02 04:18:52;;;;;;;10.60;8.60;;;;;;;;;;4925161;29;20122;-69
2023/09/02 04:21:18;;;;;;;11.27;9.15;;;;;;;;;;4904751;29;20107;-69
2023/09/02 04:23:44;;;;;;;13.23;10.23;;;;;;;;;;4908571;29;20099;-69
2023/09/02 04:26:10;;;;;;;12.05;10.48;;;13.20;99.90;;;;;;4907895;29;20044;-69
2023/09/02 04:28:36;;;;;;;17.33;12.07;;;13.30;99.90;;;;;;4925151;29;20636;-69
2023/09/02 04:31:02;;;;;;;15.05;11.10;;;13.20;99.90;;;;;;4920345;29;20048;-69
2023/09/02 04:33:28;;;;;;;12.90;10.63;;;;;;;;;;4924087;29;20047;-69
2023/09/02 04:35:54;;;;;;;13.77;11.15;;;;;;;;;;4927935;29;20064;-69
2023/09/02 04:38:20;;;;;;;14.57;11.18;;;13.20;99.90;;;;;;4908709;29;20483;-69
2023/09/02 04:40:46;;;;;;;13.13;9.38;;;;;;;;;;4929717;29;20036;-69
2023/09/02 04:43:13;;;;;;;14.75;10.40;;;13.20;99.90;;;;;;4927884;29;20565;-69
2023/09/02 04:45:40;;;;;;;11.40;9.60;;;13.20;99.90;;;;;;4910501;29;20052;-69
2023/09/02 04:48:07;;;;;;;13.38;9.57;;;13.30;99.90;;;;;;4930534;29;20502;-69
2023/09/02 04:50:37;;;;;;;12.80;9.88;;;13.20;99.90;;;;;;4931246;29;20046;-69
2023/09/02 04:53:03;;;;;;;16.70;10.75;;;;;;;;;;4910901;29;20074;-69
2023/09/02 04:55:29;;;;;;;13.88;10.93;;;;;;;;;;4930687;29;20040;-69
2023/09/02 04:57:56;;;;;;;18.40;12.68;;;13.20;99.90;;;;;;4909620;29;20051;-69
2023/09/02 05:00:26;;;;;;;18.05;12.88;;;13.30;99.90;;;;;;4900962;29;20415;-69
2023/09/02 05:02:52;;;;;;;16.25;11.82;;;13.40;99.90;;;;;;4930804;29;20533;-69
2023/09/02 05:05:19;;;;;;;16.50;12.82;;;13.30;99.90;;;;;;4930961;29;20047;-69
2023/09/02 05:07:46;;;;;;;22.30;12.05;;;;;;;;;;4925551;29;20079;-69
2023/09/02 05:10:12;;;;;;;14.73;11.68;;;13.60;99.90;;;;;;4930278;29;20103;-69
2023/09/02 05:12:39;;;;;;;13.52;9.90;;;;;;;;;;4910820;29;20103;-69
2023/09/02 05:15:05;;;;;;;15.05;10.95;;;;;;;;;;4911543;29;20066;-69
2023/09/02 05:17:32;;;;;;;13.70;10.55;;;13.60;99.90;;;;;;4930834;29;20039;-69
2023/09/02 05:19:58;;;;;;;15.05;11.52;;;;;;;;;;4930414;29;20079;-69
2023/09/02 05:22:24;;;;;;;18.42;12.52;;;;;;;;;;4930818;29;20039;-69
2023/09/02 05:24:50;;;;;;;15.23;11.40;;;;;;;;;;4926153;29;20046;-69
2023/09/02 05:27:15;;;;;;;16.65;12.70;;;13.40;99.90;;;;;;4920979;29;20047;-69
2023/09/02 05:29:41;;;;;;;18.63;11.98;;;13.60;99.90;;;;;;4910570;29;20509;-69
2023/09/02 05:32:08;;;;;;;19.98;12.60;;;13.40;99.90;;;;;;4909783;29;20044;-69
2023/09/02 05:34:34;;;;;;;15.90;11.10;;;;;;;;;;4925261;29;20517;-69
2023/09/02 05:37:00;;;;;;;17.20;12.07;;;;;;;;;;4930348;29;20557;-69
2023/09/02 05:39:26;;;;;;;16.17;12.88;;;13.50;99.90;;;;;;4929579;29;20039;-69
2023/09/02 05:41:51;;;;;;;18.00;12.48;;;13.70;99.90;;;;;;4931495;29;20452;-69
2023/09/02 05:44:17;;;;;;;17.08;12.68;;;13.50;99.90;;;;;;4929665;29;20047;-69
2023/09/02 05:46:42;;;;;;;18.90;13.20;;;13.60;99.90;;;;;;4930023;29;20056;-69
2023/09/02 05:49:09;;;;;;;15.68;12.60;;;13.60;99.90;;;;;;4929932;29;20050;-69
2023/09/02 05:51:35;;;;;;;14.77;12.02;;;;;;;;;;4908811;29;20048;-68
2023/09/02 05:54:01;;;;;;;15.15;12.05;;;;;;;;;;4909375;29;20099;-69
2023/09/02 05:56:27;;;;;;;19.75;13.43;;;13.50;99.90;;;;;;4930425;29;20046;-69
2023/09/02 05:58:52;;;;;;;14.85;11.85;;;13.60;99.90;;;;;;4929590;29;20048;-69
2023/09/02 06:01:18;;;;;;;16.75;12.15;;;13.80;99.90;;;;;;4930168;29;20053;-69
2023/09/02 06:03:44;;;;;;;18.15;11.60;;;;;;;;;;4930322;29;20052;-69
2023/09/02 06:06:10;;;;;;;22.77;12.60;;;13.80;99.90;;;;;;4914087;29;20080;-69
2023/09/02 06:08:36;;;;;;;15.48;10.85;;;;;;;;;;4929403;29;20047;-69
2023/09/02 06:11:02;;;;;;;15.43;12.45;;;14.00;99.90;;;;;;4929528;29;20036;-69
2023/09/02 06:13:28;;;;;;;20.90;12.05;;;;;;;;;;4906189;29;20051;-69
2023/09/02 06:16:05;;;;;;;16.23;12.65;;;14.30;99.90;;;;;;4929401;29;20040;-69
2023/09/02 06:18:32;;;;;;;17.75;12.23;;;14.10;99.90;;;;;;4909179;29;20043;-69
2023/09/02 06:20:58;;;;;;;18.02;12.73;;;;;;;;;;4906513;29;20060;-69
2023/09/02 06:23:25;;;;;;;17.65;12.73;;;14.20;99.90;;;;;;4923726;29;20550;-68
2023/09/02 06:25:58;;;;;;;16.88;12.35;;;14.30;99.90;;;;;;4912000;29;20039;-68
2023/09/02 06:28:24;;;;;;;22.23;13.07;;;14.10;99.90;;;;;;4916047;29;20052;-68
2023/09/02 06:30:50;;;;;;;20.13;13.45;;;14.00;99.90;;;;;;4931010;29;20039;-66
2023/09/02 06:33:16;;;;;;;18.52;13.18;;;;;;;;;;4927445;29;20406;-65
2023/09/02 06:35:43;;;;;;;21.08;13.38;;;;;;;;;;4904879;29;20055;-65
2023/09/02 06:38:08;;;;;;;17.15;13.30;;;14.20;99.90;;;;;;4913071;29;20134;-65
2023/09/02 06:40:34;;;;;;;21.08;12.98;;;;;;;;;;4924878;29;20143;-66
2023/09/02 06:43:00;;;;;;;19.80;13.15;;;;;;;;;;4895460;29;20148;-67
2023/09/02 06:45:26;;;;;;;21.92;13.98;;;;;;;;;;4910649;29;20086;-66
2023/09/02 06:47:52;;;;;;;18.90;14.05;;;;;;;;;;4931910;29;20079;-66
2023/09/02 06:50:18;;;;;;;22.88;14.20;;;;;;;;;;4928424;29;20536;-66
2023/09/02 06:52:44;;;;;;;24.25;15.82;;;14.50;99.90;;;;;;4909951;29;20406;-66
2023/09/02 06:55:10;;;;;;;21.95;14.13;;;;;;;;;;4922980;29;20050;-66
2023/09/02 06:57:42;;;;;;;23.30;14.32;;;14.50;99.90;;;;;;4923647;29;20047;-66
2023/09/02 07:00:08;;;;;;;25.73;15.65;;;;;;;;;;4929110;29;20130;-66
2023/09/02 07:02:34;;;;;;;23.95;15.98;;;14.50;99.90;;;;;;4921783;29;20052;-65
2023/09/02 07:05:00;;;;;;;21.98;15.25;;;;;;;;;;4902173;29;20612;-68
2023/09/02 07:07:26;;;;;;;26.27;16.35;;;;;;;;;;4902694;29;20463;-70
2023/09/02 07:09:52;;;;;;;21.50;14.50;;;;;;;;;;4928355;29;20829;-68
2023/09/02 07:12:18;;;;;;;28.30;18.30;;;;;;;;;;4907706;29;20044;-67
2023/09/02 07:14:43;;;;;;;20.75;14.80;;;14.80;99.90;;;;;;4924530;29;20042;-66
2023/09/02 07:17:09;;;;;;;25.80;16.70;;;14.90;99.90;;;;;;4925226;29;20693;-66
2023/09/02 07:19:35;;;;;;;24.05;14.93;;;;;;;;;;4912152;29;20893;-66
2023/09/02 07:22:01;;;;;;;23.05;14.57;;;;;;;;;;4923491;28;20415;-67
2023/09/02 07:24:27;;;;;;;23.25;17.10;;;;;;;;;;4912401;29;20051;-67
2023/09/02 07:26:55;;;;;;;24.25;15.93;;;15.40;99.90;;;;;;4925272;29;20090;-66
2023/09/02 07:29:21;;;;;;;23.88;15.38;;;;;;;;;;4925784;29;20044;-67
2023/09/02 07:31:47;;;;;;;24.85;17.33;;;;;;;;;;4907431;29;20094;-66
2023/09/02 07:34:14;;;;;;;23.25;16.27;;;;;;;;;;4926472;29;20044;-67
2023/09/02 07:36:40;;;;;;;25.15;15.98;;;;;;;;;;4903700;29;20056;-67
2023/09/02 07:39:06;;;;;;;20.48;16.27;;;;;;;;;;4908831;29;20593;-66
2023/09/02 07:41:31;;;;;;;22.13;15.63;;;15.90;99.90;;;;;;4920222;29;20039;-67
2023/09/02 07:43:57;;;;;;;26.08;16.15;;;;;;;;;;4906700;29;20050;-66
2023/09/02 07:46:23;;;;;;;25.88;17.90;;;16.10;99.90;;;;;;4919047;29;20050;-66
2023/09/02 07:48:50;;;;;;;25.10;16.88;;;;;;;;;;4906191;29;20519;-66
2023/09/02 07:51:17;;;;;;;21.52;15.52;;;16.10;99.90;;;;;;4903062;29;20451;-66
2023/09/02 07:53:43;;;;;;;22.75;16.70;;;;;;;;;;4917180;29;20052;-66
2023/09/02 07:56:09;;;;;;;25.20;16.70;;;16.20;99.90;;;;;;4921740;29;20406;-66
2023/09/02 07:58:37;;;;;;;27.65;17.92;;;16.40;99.90;;;;;;4921057;29;20043;-72
2023/09/02 08:01:03;;;;;;;25.13;16.48;;;;;;;;;;4900665;29;20470;-67
2023/09/02 08:03:29;;;;;;;24.45;16.85;;;;;;;;;;4918693;29;20051;-67
2023/09/02 08:05:55;;;;;;;30.90;20.00;;;16.80;99.90;;;;;;4907012;29;20083;-67
2023/09/02 08:08:21;;;;;;;24.80;17.77;;;17.00;99.90;;;;;;4901324;29;20396;-67
2023/09/02 08:10:47;;;;;;;32.33;18.60;;;;;;;;;;4903897;29;20119;-67
2023/09/02 08:13:13;;;;;;;27.23;18.85;;;;;;;;;;4921636;29;20066;-67
2023/09/02 08:15:39;;;;;;;28.33;18.80;;;17.40;99.90;;;;;;4907300;29;20044;-67
2023/09/02 08:18:06;;;;;;;29.20;18.52;;;17.40;99.90;;;;;;4929188;28;20050;-67
2023/09/02 08:20:32;;;;;;;32.60;20.05;;;;;;;;;;4936841;29;21388;-67
2023/09/02 08:22:58;;;;;;;29.98;19.40;;;17.50;99.90;;;;;;4903913;29;20388;-67
2023/09/02 08:25:23;;;;;;;30.27;19.20;;;17.70;99.90;;;;;;4926432;29;20130;-67
2023/09/02 08:27:49;;;;;;;34.00;21.13;;;;;;;;;;4927071;29;20091;-67
2023/09/02 08:30:15;;;;;;;33.97;21.00;;;;;;;;;;4929692;29;20565;-68
2023/09/02 08:32:42;;;;;;;31.25;19.85;;;;;;;;;;4926762;29;20044;-68
2023/09/02 08:35:08;;;;;;;32.90;19.67;;;18.10;99.90;;;;;;4908026;29;20780;-70
2023/09/02 08:37:34;;;;;;;34.75;20.35;;;;;;;;;;4926246;29;20725;-75
2023/09/02 08:40:03;;;;;;;28.33;19.40;;;18.20;99.90;;;;;;4930264;29;20058;-75
2023/09/02 08:42:40;;;;;;;34.25;21.70;;;18.30;99.90;;;;;;4908101;29;20044;-75
2023/09/02 08:45:13;;;;;;;31.48;20.25;;;18.20;99.90;;;;;;4896342;29;20083;-75
2023/09/02 08:47:40;;;;;;;31.67;19.27;;;18.50;99.90;;;;;;4930510;29;20055;-75
2023/09/02 08:50:09;;;;;;;32.08;21.65;;;18.40;99.90;;;;;;4896628;29;20040;-72
2023/09/02 08:52:36;;;;;;;32.53;20.58;;;;;;;;;;4899112;29;20048;-75
2023/09/02 08:55:03;;;;;;;36.65;21.27;;;18.60;99.90;;;;;;4897069;29;20142;-72
2023/09/02 08:57:28;;;;;;;30.50;20.95;;;18.70;99.90;;;;;;4904433;29;20712;-73
2023/09/02 08:59:54;;;;;;;29.88;19.50;;;18.70;99.90;;;;;;4904636;29;20108;-75
2023/09/02 09:02:20;;;;;;;36.05;21.63;;;;;;;;;;4904128;29;20076;-73
2023/09/02 09:04:49;;;;;;;27.98;19.70;;;18.80;99.90;;;;;;4903294;29;20055;-74
2023/09/02 09:07:18;;;;;;;33.60;21.25;;;18.90;99.90;;;;;;4921998;29;20099;-69
2023/09/02 09:09:47;;;;;;;27.67;19.67;;;19.00;99.90;;;;;;4921777;29;20051;-74
2023/09/02 09:12:13;;;;;;;29.65;19.08;;;;;;;;;;4913511;29;20043;-71
2023/09/02 09:14:45;;;;;;;28.17;18.52;;;19.00;99.90;;;;;;4920422;29;20075;-73
2023/09/02 09:17:13;;;;;;;32.58;20.50;;;19.30;99.90;;;;;;4925077;29;20136;-71
2023/09/02 09:19:39;;;;;;;30.88;19.83;;;19.60;99.90;;;;;;4917727;29;20054;-68
2023/09/02 09:22:05;;;;;;;30.67;19.58;;;19.80;99.90;;;;;;4894941;29;20497;-70
2023/09/02 09:24:30;;;;;;;27.42;17.40;;;19.90;99.90;;;;;;4901218;29;20051;-70
2023/09/02 09:26:59;;;;;;;25.98;16.80;;;20.00;99.90;;;;;;4903325;29;20031;-72
2023/09/02 09:29:24;;;;;;;28.80;17.13;;;20.20;99.90;;;;;;4897685;29;20158;-69
2023/09/02 09:32:07;;;;;;;30.02;17.00;;;20.30;99.90;;;;;;4897540;29;20052;-68
2023/09/02 09:34:41;;;;;;;24.23;16.52;;;20.50;99.90;;;;;;4925203;29;20099;-72
2023/09/02 09:37:08;;;;;;;27.45;15.90;;;20.20;99.90;;;;;;4915050;29;20080;-74
2023/09/02 09:39:45;;;;;;;23.98;15.15;;;20.30;99.90;;;;;;4898696;29;20059;-73
2023/09/02 09:42:16;;;;;;;22.98;14.60;;;20.70;99.90;;;;;;4884037;29;20071;-72
2023/09/02 09:44:54;;;;;;;21.63;14.10;;;20.70;99.90;;;;;;4927925;29;20063;-74
2023/09/02 09:47:22;;;;;;;21.58;14.52;;;20.60;99.90;;;;;;4882593;29;20099;-70
2023/09/02 09:49:49;;;;;;;20.63;13.68;;;20.30;99.90;;;;;;4899915;29;20063;-71
2023/09/02 09:52:16;;;;;;;17.88;12.20;;;20.70;99.90;;;;;;4898462;29;20048;-71
2023/09/02 09:54:45;;;;;;;20.38;11.77;;;20.20;99.90;;;;;;4900490;29;20052;-70
2023/09/02 09:57:29;;;;;;;23.25;14.90;;;20.20;99.90;;;;;;4902839;29;20048;-71
2023/09/02 09:59:55;;;;;;;24.25;14.23;;;20.20;99.90;;;;;;4897012;29;20042;-70
2023/09/02 10:02:21;;;;;;;25.17;14.45;;;20.30;99.90;;;;;;4911070;29;20094;-70
2023/09/02 10:04:55;;;;;;;23.05;15.05;;;20.30;99.90;;;;;;4918528;29;20052;-72
2023/09/02 10:07:26;;;;;;;19.25;12.18;;;20.10;99.90;;;;;;4898830;29;20044;-70
2023/09/02 10:09:58;;;;;;;19.55;10.95;;;20.10;99.90;;;;;;4910395;29;20562;-75
2023/09/02 10:12:23;;;;;;;22.95;13.20;;;20.20;99.90;;;;;;4898218;29;20040;-72
2023/09/02 10:14:50;;;;;;;24.80;12.85;;;20.10;99.90;;;;;;4911913;29;20914;-70
2023/09/02 10:17:17;;;;;;;26.77;15.82;;;19.90;99.90;;;;;;4919588;29;20497;-70
2023/09/02 10:19:44;;;;;;;20.88;13.88;;;19.90;99.90;;;;;;4897791;29;20079;-70
2023/09/02 10:22:18;;;;;;;20.05;13.35;;;20.00;99.90;;;;;;4918889;29;20040;-70
2023/09/02 10:24:51;;;;;;;20.73;13.45;;;19.90;99.90;;;;;;4912069;29;20050;-76
2023/09/02 10:27:23;;;;;;;21.10;14.27;;;20.20;99.90;;;;;;4917521;29;20031;-70
2023/09/02 10:29:56;;;;;;;14.95;11.93;;;20.30;99.90;;;;;;4877233;29;20131;-70
2023/09/02 10:32:26;;;;;;;20.08;10.65;;;20.50;99.90;;;;;;4894090;29;20040;-70
2023/09/02 10:35:07;;;;;;;17.63;10.82;;;20.20;99.90;;;;;;4897835;29;20055;-70
2023/09/02 10:37:49;;;;;;;21.40;12.07;;;20.50;99.90;;;;;;4896346;29;20547;-70
2023/09/02 10:40:23;;;;;;;16.88;10.88;;;20.70;99.90;;;;;;4881196;29;20047;-73
2023/09/02 10:42:52;;;;;;;19.58;12.85;;;;;;;;;;4903211;29;20051;-75
2023/09/02 10:45:21;;;;;;;20.27;11.65;;;21.90;99.90;;;;;;4902203;29;20044;-76
2023/09/02 10:47:50;;;;;;;18.85;12.27;;;20.70;99.90;;;;;;4883175;29;20071;-75
2023/09/02 10:50:18;;;;;;;21.48;13.73;;;20.30;99.90;;;;;;4901305;29;20047;-72
2023/09/02 10:52:44;;;;;;;19.65;14.43;;;;;;;;;;4915954;29;20044;-73
2023/09/02 10:55:13;;;;;;;17.90;12.50;;;20.50;99.90;;;;;;4899897;29;20790;-73
2023/09/02 10:57:50;;;;;;;18.73;13.63;;;20.60;99.90;;;;;;4913554;29;20047;-73
2023/09/02 11:00:17;;;;;;;21.08;12.88;;;20.70;99.90;;;;;;4892101;29;20498;-72
2023/09/02 11:02:44;;;;;;;20.13;11.55;;;20.60;99.90;;;;;;4878508;29;20056;-72
2023/09/02 11:05:10;;;;;;;15.43;11.52;;;20.80;99.90;;;;;;4916817;29;20672;-72
2023/09/02 11:07:39;;;;;;;19.33;11.10;;;20.30;99.90;;;;;;4914385;29;20040;-72
2023/09/02 11:10:06;;;;;;;19.35;11.25;;;20.30;99.90;;;;;;4897775;29;20116;-69
2023/09/02 11:12:33;;;;;;;17.27;10.60;;;20.70;99.90;;;;;;4905725;29;20054;-69
2023/09/02 11:15:07;;;;;;;14.88;10.68;;;19.20;99.90;;;;;;4926172;29;20035;-71
2023/09/02 11:17:35;;;;;;;16.13;11.32;;;20.70;99.90;;;;;;4926192;29;20462;-71
2023/09/02 11:20:05;;;;;;;17.58;9.80;;;22.80;99.90;;;;;;4921273;29;20074;-71
2023/09/02 11:22:49;;;;;;;11.93;9.57;;;20.80;99.90;;;;;;4928724;29;20478;-72
2023/09/02 11:25:38;;;;;;;16.52;8.98;;;20.80;99.90;;;;;;4923813;29;20527;-76
2023/09/02 11:28:05;;;;;;;13.27;9.40;;;22.40;99.90;;;;;;4910539;29;20039;-74
2023/09/02 11:30:33;;;;;;;15.13;10.07;;;20.80;99.90;;;;;;4910204;29;20078;-73
2023/09/02 11:32:59;;;;;;;12.93;9.40;;;20.70;99.90;;;;;;4898085;29;20142;-72
2023/09/02 11:35:35;;;;;;;19.13;10.00;;;20.90;99.90;;;;;;4909143;29;20413;-70
2023/09/02 11:38:03;;;;;;;18.02;10.82;;;20.80;99.90;;;;;;4905076;29;20051;-69
2023/09/02 11:40:29;;;;;;;12.00;9.43;;;20.70;99.90;;;;;;4922324;29;20039;-69
2023/09/02 11:43:00;;;;;;;14.00;9.63;;;20.60;99.90;;;;;;4928959;29;20050;-72
2023/09/02 11:45:38;;;;;;;15.13;9.52;;;20.50;99.90;;;;;;4910236;29;20047;-71
2023/09/02 11:48:04;;;;;;;12.68;8.20;;;20.60;99.90;;;;;;4907721;29;20048;-70
2023/09/02 11:50:30;;;;;;;13.32;8.27;;;20.70;99.90;;;;;;4906771;29;20719;-71
2023/09/02 11:52:57;;;;;;;11.32;7.40;;;20.40;99.90;;;;;;4894049;29;20047;-70
2023/09/02 11:55:23;;;;;;;12.10;8.50;;;20.70;99.90;;;;;;4924724;29;20079;-69
2023/09/02 11:57:50;;;;;;;11.95;8.48;;;20.70;99.90;;;;;;4903853;29;20060;-69
2023/09/02 12:00:21;;;;;;;14.85;8.40;;;20.70;99.90;;;;;;4927962;29;20039;-70
2023/09/02 12:02:47;;;;;;;13.85;8.80;;;20.90;99.90;;;;;;4905305;29;20064;-71
2023/09/02 12:05:15;;;;;;;14.00;9.07;;;20.90;99.90;;;;;;4904322;29;20138;-69
2023/09/02 12:07:45;;;;;;;10.45;7.65;;;20.50;99.90;;;;;;4919706;29;20051;-72
2023/09/02 12:10:16;;;;;;;9.63;7.93;;;20.90;99.90;;;;;;4928663;29;20063;-70
2023/09/02 12:12:42;;;;;;;12.25;8.75;;;20.60;99.90;;;;;;4908830;29;20059;-69
2023/09/02 12:15:16;;;;;;;11.23;7.32;;;20.40;99.90;;;;;;4926561;29;20042;-69
2023/09/02 12:17:43;;;;;;;14.20;5.82;;;20.40;99.90;;;;;;4913426;29;20052;-70
2023/09/02 12:20:11;;;;;;;8.57;5.57;;;20.60;99.90;;;;;;4907717;29;20522;-68
2023/09/02 12:22:37;;;;;;;8.68;5.32;;;22.10;99.90;;;;;;4910704;29;20055;-70
2023/09/02 12:25:29;;;;;;;10.07;6.07;;;20.80;99.90;;;;;;4914245;29;20509;-69
2023/09/02 12:28:09;;;;;;;9.40;5.15;;;22.20;99.90;;;;;;4904840;29;20161;-69
2023/09/02 12:30:35;;;;;;;11.77;4.88;;;21.00;99.90;;;;;;4902537;29;20586;-68
2023/09/02 12:33:03;;;;;;;9.20;4.80;;;21.90;99.90;;;;;;4924568;28;20118;-71
2023/09/02 12:35:28;;;;;;;7.95;4.97;;;20.90;99.90;;;;;;4905190;29;20047;-69
2023/09/02 12:38:05;;;;;;;13.38;6.63;;;20.50;99.90;;;;;;4903389;29;20059;-69
2023/09/02 12:40:31;;;;;;;8.35;5.25;;;22.60;99.90;;;;;;4925535;29;20123;-71
2023/09/02 12:42:58;;;;;;;11.95;6.13;;;21.00;99.90;;;;;;4925810;29;20083;-69
2023/09/02 12:45:31;;;;;;;10.85;5.28;;;20.80;99.90;;;;;;4901663;29;20048;-70
2023/09/02 12:47:59;;;;;;;8.70;5.30;;;21.10;99.90;;;;;;4929495;29;20039;-70
2023/09/02 12:50:26;;;;;;;7.78;5.20;;;21.00;99.90;;;;;;4905296;29;20155;-69
2023/09/02 12:53:13;;;;;;;8.63;4.45;;;21.20;99.90;;;;;;4905358;29;20060;-69
2023/09/02 12:55:43;;;;;;;9.95;5.47;;;20.70;99.90;;;;;;4922001;29;20048;-69
2023/09/02 12:58:09;;;;;;;13.48;4.90;;;20.80;99.90;;;;;;4910456;29;20130;-70
2023/09/02 13:00:35;;;;;;;8.98;4.75;;;21.10;99.90;;;;;;4908016;29;20048;-69
2023/09/02 13:03:00;;;;;;;8.57;4.60;;;20.90;99.90;;;;;;4933607;29;20110;-69
2023/09/02 13:05:26;;;;;;;7.68;3.78;;;21.00;99.90;;;;;;4910926;29;20048;-73
2023/09/02 13:07:55;;;;;;;7.85;5.15;;;20.80;99.90;;;;;;4926863;29;20040;-71